sensor_id;sensor_type;location;lat;lon;timestamp;pressure;altitude;pressure_sealevel;temperature;humidity
10476;BME280;26166;48.264;11.436;2022-10-31T00:00:39;96635.28;;;20.11;57.24
10476;BME280;26166;48.264;11.436;2022-10-31T00:03:45;96632.59;;;20.11;57.39
10476;BME280;26166;48.264;11.436;2022-10-31T00:07:06;96629.94;;;20.11;57.34
10476;BME280;26166;48.264;11.436;2022-10-31T00:10:47;96632.59;;;20.11;57.27
10476;BME280;26166;48.264;11.436;2022-10-31T00:13:54;96633.41;;;20.11;57.27
10476;BME280;26166;48.264;11.436;2022-10-31T00:17:06;96626.47;;;20.10;57.25
10476;BME280;26166;48.264;11.436;2022-10-31T00:20:44;96624.59;;;20.11;57.22
10476;BME280;26166;48.264;11.436;2022-10-31T00:27:31;96631.78;;;20.10;57.22
10476;BME280;26166;48.264;11.436;2022-10-31T00:30:34;96628.31;;;20.10;57.19
10476;BME280;26166;48.264;11.436;2022-10-31T00:33:37;96628.31;;;20.10;57.23
10476;BME280;26166;48.264;11.436;2022-10-31T00:37:10;96627.47;;;20.09;57.12
10476;BME280;26166;48.264;11.436;2022-10-31T00:40:18;96629.31;;;20.09;57.46
10476;BME280;26166;48.264;11.436;2022-10-31T00:43:55;96629.31;;;20.09;57.20
10476;BME280;26166;48.264;11.436;2022-10-31T00:47:10;96634.66;;;20.09;57.21
10476;BME280;26166;48.264;11.436;2022-10-31T00:50:49;96631.19;;;20.08;57.18
10476;BME280;26166;48.264;11.436;2022-10-31T00:54:17;96633.03;;;20.08;57.28
10476;BME280;26166;48.264;11.436;2022-10-31T00:57:59;96632.00;;;20.09;57.19
10476;BME280;26166;48.264;11.436;2022-10-31T01:01:09;96631.19;;;20.08;57.16
10476;BME280;26166;48.264;11.436;2022-10-31T01:05:05;96630.38;;;20.08;57.41
10476;BME280;26166;48.264;11.436;2022-10-31T01:08:25;96635.47;;;20.09;57.24
10476;BME280;26166;48.264;11.436;2022-10-31T01:11:28;96637.31;;;20.09;57.22
10476;BME280;26166;48.264;11.436;2022-10-31T01:15:26;96634.06;;;20.07;57.19
10476;BME280;26166;48.264;11.436;2022-10-31T01:19:19;96627.69;;;20.08;57.10
10476;BME280;26166;48.264;11.436;2022-10-31T01:26:27;96626.88;;;20.07;57.19
10476;BME280;26166;48.264;11.436;2022-10-31T01:30:22;96628.75;;;20.07;57.07
10476;BME280;26166;48.264;11.436;2022-10-31T01:33:52;96622.59;;;20.06;57.09
10476;BME280;26166;48.264;11.436;2022-10-31T01:40:50;96619.13;;;20.06;57.18
10476;BME280;26166;48.264;11.436;2022-10-31T01:47:46;96624.66;;;20.04;57.27
10476;BME280;26166;48.264;11.436;2022-10-31T01:55:33;96620.94;;;20.05;57.39
10476;BME280;26166;48.264;11.436;2022-10-31T01:58:43;96611.13;;;20.06;57.19
10476;BME280;26166;48.264;11.436;2022-10-31T02:09:13;96614.78;;;20.05;57.31
10476;BME280;26166;48.264;11.436;2022-10-31T02:12:40;96624.66;;;20.04;57.20
10476;BME280;26166;48.264;11.436;2022-10-31T02:27:07;96613.16;;;20.04;57.08
10476;BME280;26166;48.264;11.436;2022-10-31T02:37:52;96611.53;;;20.03;57.22
10476;BME280;26166;48.264;11.436;2022-10-31T02:44:36;96625.69;;;20.03;57.19
10476;BME280;26166;48.264;11.436;2022-10-31T02:48:19;96625.69;;;20.03;56.98
10476;BME280;26166;48.264;11.436;2022-10-31T02:51:46;96626.72;;;20.02;57.30
10476;BME280;26166;48.264;11.436;2022-10-31T02:54:56;96626.72;;;20.02;57.23
10476;BME280;26166;48.264;11.436;2022-10-31T02:58:06;96620.59;;;20.02;57.32
10476;BME280;26166;48.264;11.436;2022-10-31T03:01:26;96622.22;;;20.03;57.41
10476;BME280;26166;48.264;11.436;2022-10-31T03:07:54;96623.25;;;20.02;57.21
10476;BME280;26166;48.264;11.436;2022-10-31T03:10:58;96617.09;;;20.01;57.15
10476;BME280;26166;48.264;11.436;2022-10-31T03:14:07;96618.94;;;20.01;57.26
10476;BME280;26166;48.264;11.436;2022-10-31T03:17:12;96622.63;;;20.00;57.25
10476;BME280;26166;48.264;11.436;2022-10-31T03:20:15;96617.91;;;20.02;57.11
10476;BME280;26166;48.264;11.436;2022-10-31T03:23:19;96624.25;;;20.01;57.14
10476;BME280;26166;48.264;11.436;2022-10-31T03:26:21;96620.78;;;20.00;57.08
10476;BME280;26166;48.264;11.436;2022-10-31T03:29:24;96632.25;;;20.01;57.20
10476;BME280;26166;48.264;11.436;2022-10-31T03:32:29;96622.44;;;20.01;57.22
10476;BME280;26166;48.264;11.436;2022-10-31T03:35:31;96622.22;;;20.03;57.23
10476;BME280;26166;48.264;11.436;2022-10-31T03:38:32;96624.88;;;20.03;57.04
10476;BME280;26166;48.264;11.436;2022-10-31T03:41:35;96626.72;;;20.02;57.11
10476;BME280;26166;48.264;11.436;2022-10-31T03:44:37;96624.06;;;20.02;56.98
10476;BME280;26166;48.264;11.436;2022-10-31T03:47:40;96622.22;;;20.03;57.14
10476;BME280;26166;48.264;11.436;2022-10-31T03:54:03;96631.25;;;20.02;56.92
10476;BME280;26166;48.264;11.436;2022-10-31T03:57:06;96626.72;;;20.02;57.03
10476;BME280;26166;48.264;11.436;2022-10-31T04:00:11;96625.91;;;20.02;57.20
10476;BME280;26166;48.264;11.436;2022-10-31T04:03:14;96625.91;;;20.02;57.13
10476;BME280;26166;48.264;11.436;2022-10-31T04:06:16;96618.94;;;20.01;56.94
10476;BME280;26166;48.264;11.436;2022-10-31T04:09:18;96623.44;;;20.00;57.05
10476;BME280;26166;48.264;11.436;2022-10-31T04:12:19;96621.81;;;19.99;56.94
10476;BME280;26166;48.264;11.436;2022-10-31T04:15:21;96622.63;;;20.00;56.93
10476;BME280;26166;48.264;11.436;2022-10-31T04:18:22;96625.53;;;19.98;57.04
10476;BME280;26166;48.264;11.436;2022-10-31T04:21:29;96625.28;;;20.00;56.84
10476;BME280;26166;48.264;11.436;2022-10-31T04:24:29;96621.00;;;19.99;57.04
10476;BME280;26166;48.264;11.436;2022-10-31T04:27:30;96624.72;;;19.98;57.06
10476;BME280;26166;48.264;11.436;2022-10-31T04:30:30;96624.72;;;19.98;57.09
10476;BME280;26166;48.264;11.436;2022-10-31T04:33:30;96630.03;;;19.98;57.06
10476;BME280;26166;48.264;11.436;2022-10-31T04:36:30;96626.34;;;19.99;57.24
10476;BME280;26166;48.264;11.436;2022-10-31T04:39:31;96630.03;;;19.98;57.13
10476;BME280;26166;48.264;11.436;2022-10-31T04:42:31;96631.66;;;19.99;57.06
10476;BME280;26166;48.264;11.436;2022-10-31T04:45:31;96632.47;;;19.99;57.17
10476;BME280;26166;48.264;11.436;2022-10-31T04:48:31;96624.25;;;20.01;57.10
10476;BME280;26166;48.264;11.436;2022-10-31T04:51:31;96618.09;;;20.00;56.93
10476;BME280;26166;48.264;11.436;2022-10-31T04:54:32;96623.44;;;20.00;57.08
10476;BME280;26166;48.264;11.436;2022-10-31T04:57:32;96619.97;;;20.00;57.00
10476;BME280;26166;48.264;11.436;2022-10-31T05:00:32;96626.09;;;20.00;56.93
10476;BME280;26166;48.264;11.436;2022-10-31T05:03:33;96618.94;;;20.01;57.04
10476;BME280;26166;48.264;11.436;2022-10-31T05:06:33;96622.44;;;20.01;57.01
10476;BME280;26166;48.264;11.436;2022-10-31T05:09:33;96619.75;;;20.01;56.82
10476;BME280;26166;48.264;11.436;2022-10-31T05:12:33;96619.75;;;20.01;56.82
10476;BME280;26166;48.264;11.436;2022-10-31T05:15:34;96618.94;;;20.01;57.06
10476;BME280;26166;48.264;11.436;2022-10-31T05:18:34;96616.06;;;20.02;56.97
10476;BME280;26166;48.264;11.436;2022-10-31T05:21:34;96614.44;;;20.01;56.79
10476;BME280;26166;48.264;11.436;2022-10-31T05:24:34;96610.72;;;20.02;56.84
10476;BME280;26166;48.264;11.436;2022-10-31T05:27:38;96611.53;;;20.03;56.97
10476;BME280;26166;48.264;11.436;2022-10-31T05:30:38;96612.34;;;20.03;56.90
10476;BME280;26166;48.264;11.436;2022-10-31T05:33:38;96618.50;;;20.04;56.93
10476;BME280;26166;48.264;11.436;2022-10-31T05:36:39;96618.50;;;20.04;56.93
10476;BME280;26166;48.264;11.436;2022-10-31T05:39:39;96618.50;;;20.04;56.98
10476;BME280;26166;48.264;11.436;2022-10-31T05:42:39;96607.03;;;20.03;56.96
10476;BME280;26166;48.264;11.436;2022-10-31T05:45:40;96609.69;;;20.03;56.83
10476;BME280;26166;48.264;11.436;2022-10-31T05:48:40;96611.53;;;20.03;56.93
10476;BME280;26166;48.264;11.436;2022-10-31T05:51:40;96603.53;;;20.03;56.90
10476;BME280;26166;48.264;11.436;2022-10-31T05:54:40;96606.22;;;20.03;56.78
10476;BME280;26166;48.264;11.436;2022-10-31T05:57:41;96610.72;;;20.02;56.65
10476;BME280;26166;48.264;11.436;2022-10-31T06:00:41;96616.88;;;20.03;56.69
10476;BME280;26166;48.264;11.436;2022-10-31T06:03:41;96611.53;;;20.03;56.63
10476;BME280;26166;48.264;11.436;2022-10-31T06:06:41;96609.69;;;20.03;56.79
10476;BME280;26166;48.264;11.436;2022-10-31T06:09:42;96621.41;;;20.02;56.68
10476;BME280;26166;48.264;11.436;2022-10-31T06:12:42;96617.91;;;20.02;56.68
10476;BME280;26166;48.264;11.436;2022-10-31T06:15:42;96619.53;;;20.03;56.81
10476;BME280;26166;48.264;11.436;2022-10-31T06:18:42;96621.16;;;20.04;56.76
10476;BME280;26166;48.264;11.436;2022-10-31T06:21:42;96621.41;;;20.02;56.66
10476;BME280;26166;48.264;11.436;2022-10-31T06:24:43;96623.03;;;20.03;56.85
10476;BME280;26166;48.264;11.436;2022-10-31T06:27:43;96618.72;;;20.02;56.66
10476;BME280;26166;48.264;11.436;2022-10-31T06:30:43;96624.88;;;20.03;56.77
10476;BME280;26166;48.264;11.436;2022-10-31T06:33:43;96626.72;;;20.02;56.78
10476;BME280;26166;48.264;11.436;2022-10-31T06:36:45;96622.22;;;20.03;56.67
10476;BME280;26166;48.264;11.436;2022-10-31T06:39:51;96622.22;;;20.03;56.95
10476;BME280;26166;48.264;11.436;2022-10-31T06:42:56;96620.59;;;20.02;56.67
10476;BME280;26166;48.264;11.436;2022-10-31T06:46:01;96617.91;;;20.02;56.70
10476;BME280;26166;48.264;11.436;2022-10-31T06:49:02;96615.25;;;20.02;56.83
10476;BME280;26166;48.264;11.436;2022-10-31T06:52:08;96620.59;;;20.02;56.83
10476;BME280;26166;48.264;11.436;2022-10-31T06:55:08;96628.59;;;20.02;56.61
10476;BME280;26166;48.264;11.436;2022-10-31T06:58:09;96619.75;;;20.01;56.55
10476;BME280;26166;48.264;11.436;2022-10-31T07:01:10;96624.25;;;20.01;56.73
10476;BME280;26166;48.264;11.436;2022-10-31T07:04:11;96621.59;;;20.01;56.65
10476;BME280;26166;48.264;11.436;2022-10-31T07:07:11;96624.25;;;20.01;56.82
10476;BME280;26166;48.264;11.436;2022-10-31T07:10:11;96621.59;;;20.01;56.74
10476;BME280;26166;48.264;11.436;2022-10-31T07:13:13;96624.25;;;20.01;56.61
10476;BME280;26166;48.264;11.436;2022-10-31T07:16:13;96626.72;;;20.02;56.83
10476;BME280;26166;48.264;11.436;2022-10-31T07:19:14;96624.06;;;20.02;56.72
10476;BME280;26166;48.264;11.436;2022-10-31T07:22:14;96625.69;;;20.03;56.87
10476;BME280;26166;48.264;11.436;2022-10-31T07:25:14;96623.84;;;20.04;56.67
10476;BME280;26166;48.264;11.436;2022-10-31T07:28:15;96623.84;;;20.04;56.51
10476;BME280;26166;48.264;11.436;2022-10-31T07:31:16;96628.13;;;20.05;56.68
10476;BME280;26166;48.264;11.436;2022-10-31T07:34:17;96623.59;;;20.05;56.74
10476;BME280;26166;48.264;11.436;2022-10-31T07:37:17;96628.75;;;20.07;57.09
10476;BME280;26166;48.264;11.436;2022-10-31T07:40:18;96623.41;;;20.07;56.78
10476;BME280;26166;48.264;11.436;2022-10-31T07:43:18;96627.94;;;20.06;56.65
10476;BME280;26166;48.264;11.436;2022-10-31T07:46:18;96627.13;;;20.06;56.70
10476;BME280;26166;48.264;11.436;2022-10-31T07:49:19;96628.94;;;20.05;56.75
10476;BME280;26166;48.264;11.436;2022-10-31T07:52:19;96630.78;;;20.05;56.60
10476;BME280;26166;48.264;11.436;2022-10-31T07:55:19;96623.84;;;20.04;56.74
10476;BME280;26166;48.264;11.436;2022-10-31T07:58:19;96622.22;;;20.03;56.11
10476;BME280;26166;48.264;11.436;2022-10-31T08:01:20;96619.53;;;20.03;56.08
10476;BME280;26166;48.264;11.436;2022-10-31T08:04:20;96618.72;;;20.02;56.10
10476;BME280;26166;48.264;11.436;2022-10-31T08:07:20;96623.84;;;20.04;56.54
10476;BME280;26166;48.264;11.436;2022-10-31T08:10:21;96613.41;;;20.02;56.53
10476;BME280;26166;48.264;11.436;2022-10-31T08:13:21;96607.59;;;20.05;57.05
10476;BME280;26166;48.264;11.436;2022-10-31T08:16:21;96604.31;;;20.10;57.65
10476;BME280;26166;48.264;11.436;2022-10-31T08:19:22;96607.34;;;20.13;57.50
10476;BME280;26166;48.264;11.436;2022-10-31T08:22:22;96607.72;;;20.17;57.35
10476;BME280;26166;48.264;11.436;2022-10-31T08:25:23;96602.38;;;20.17;57.31
10476;BME280;26166;48.264;11.436;2022-10-31T08:28:23;96603.19;;;20.17;57.04
10476;BME280;26166;48.264;11.436;2022-10-31T08:31:23;96602.38;;;20.17;57.03
10476;BME280;26166;48.264;11.436;2022-10-31T08:34:26;96588.47;;;20.15;56.98
10476;BME280;26166;48.264;11.436;2022-10-31T08:37:26;96592.16;;;20.14;56.93
10476;BME280;26166;48.264;11.436;2022-10-31T08:40:27;96587.28;;;20.11;56.72
10476;BME280;26166;48.264;11.436;2022-10-31T08:43:28;96584.81;;;20.09;56.96
10476;BME280;26166;48.264;11.436;2022-10-31T08:46:28;96583.19;;;20.08;56.86
10476;BME280;26166;48.264;11.436;2022-10-31T08:49:28;96578.06;;;20.07;56.82
10476;BME280;26166;48.264;11.436;2022-10-31T08:52:28;96571.94;;;20.06;57.06
10476;BME280;26166;48.264;11.436;2022-10-31T08:55:29;96566.59;;;20.06;56.86
10476;BME280;26166;48.264;11.436;2022-10-31T08:58:29;96563.13;;;20.06;56.98
10476;BME280;26166;48.264;11.436;2022-10-31T09:01:29;96562.28;;;20.05;57.01
10476;BME280;26166;48.264;11.436;2022-10-31T09:04:30;96557.78;;;20.06;56.99
10476;BME280;26166;48.264;11.436;2022-10-31T09:07:30;96563.13;;;20.06;56.86
10476;BME280;26166;48.264;11.436;2022-10-31T09:10:31;96556.13;;;20.05;56.92
10476;BME280;26166;48.264;11.436;2022-10-31T09:13:31;96553.69;;;20.03;56.92
10476;BME280;26166;48.264;11.436;2022-10-31T09:16:31;96550.78;;;20.05;56.93
10476;BME280;26166;48.264;11.436;2022-10-31T09:19:32;96549.97;;;20.04;57.04
10476;BME280;26166;48.264;11.436;2022-10-31T09:22:32;96549.16;;;20.04;56.81
10476;BME280;26166;48.264;11.436;2022-10-31T09:25:33;96545.69;;;20.03;56.77
10476;BME280;26166;48.264;11.436;2022-10-31T09:28:34;96550.78;;;20.05;56.79
10476;BME280;26166;48.264;11.436;2022-10-31T09:31:35;96534.81;;;20.05;56.76
10476;BME280;26166;48.264;11.436;2022-10-31T09:34:35;96535.03;;;20.03;56.77
10476;BME280;26166;48.264;11.436;2022-10-31T09:37:35;96532.34;;;20.03;56.66
10476;BME280;26166;48.264;11.436;2022-10-31T09:52:44;96531.72;;;20.26;58.80
10476;BME280;26166;48.264;11.436;2022-10-31T09:55:48;96521.56;;;21.20;56.36
10476;BME280;26166;48.264;11.436;2022-10-31T09:58:51;96515.47;;;22.44;53.19
10476;BME280;26166;48.264;11.436;2022-10-31T10:08:02;96508.19;;;24.54;49.03
10476;BME280;26166;48.264;11.436;2022-10-31T10:14:14;96508.72;;;25.22;45.64
10476;BME280;26166;48.264;11.436;2022-10-31T10:20:30;96498.06;;;25.32;45.07
10476;BME280;26166;48.264;11.436;2022-10-31T10:33:18;96501.44;;;23.96;46.62
10476;BME280;26166;48.264;11.436;2022-10-31T10:36:21;96491.91;;;23.38;48.18
10476;BME280;26166;48.264;11.436;2022-10-31T10:42:25;96487.00;;;22.89;49.35
10476;BME280;26166;48.264;11.436;2022-10-31T10:45:47;96488.69;;;22.67;49.93
10476;BME280;26166;48.264;11.436;2022-10-31T10:55:43;96478.25;;;22.30;51.04
10476;BME280;26166;48.264;11.436;2022-10-31T10:58:45;96478.50;;;22.17;52.20
10476;BME280;26166;48.264;11.436;2022-10-31T11:01:45;96467.00;;;22.16;51.56
10476;BME280;26166;48.264;11.436;2022-10-31T11:04:52;96461.75;;;22.10;51.59
10476;BME280;26166;48.264;11.436;2022-10-31T11:07:53;96463.38;;;22.11;52.00
10476;BME280;26166;48.264;11.436;2022-10-31T11:14:12;96454.91;;;21.90;52.22
10476;BME280;26166;48.264;11.436;2022-10-31T11:17:26;96459.78;;;21.82;52.48
10476;BME280;26166;48.264;11.436;2022-10-31T11:20:31;96447.59;;;21.74;52.31
10476;BME280;26166;48.264;11.436;2022-10-31T11:23:32;96446.88;;;21.67;52.71
10476;BME280;26166;48.264;11.436;2022-10-31T11:26:33;96447.81;;;21.61;52.68
10476;BME280;26166;48.264;11.436;2022-10-31T11:29:35;96439.91;;;21.54;52.78
10476;BME280;26166;48.264;11.436;2022-10-31T11:32:36;96435.50;;;21.48;53.26
10476;BME280;26166;48.264;11.436;2022-10-31T11:35:42;96435.81;;;21.40;53.22
10476;BME280;26166;48.264;11.436;2022-10-31T11:38:43;96425.03;;;21.35;53.33
10476;BME280;26166;48.264;11.436;2022-10-31T11:41:44;96429.38;;;21.29;53.78
10476;BME280;26166;48.264;11.436;2022-10-31T11:44:45;96423.34;;;21.22;53.91
10476;BME280;26166;48.264;11.436;2022-10-31T11:47:52;96418.44;;;21.19;54.36
10476;BME280;26166;48.264;11.436;2022-10-31T11:50:55;96412.97;;;21.14;54.25
10476;BME280;26166;48.264;11.436;2022-10-31T11:53:59;96410.56;;;21.12;54.62
10476;BME280;26166;48.264;11.436;2022-10-31T11:57:04;96406.91;;;21.07;54.54
10476;BME280;26166;48.264;11.436;2022-10-31T12:00:06;96398.78;;;21.02;54.89
10476;BME280;26166;48.264;11.436;2022-10-31T12:06:44;96398.09;;;20.95;54.84
10476;BME280;26166;48.264;11.436;2022-10-31T12:09:43;96389.34;;;20.87;55.23
10476;BME280;26166;48.264;11.436;2022-10-31T12:15:46;96409.16;;;20.80;55.39
10476;BME280;26166;48.264;11.436;2022-10-31T12:18:57;96412.06;;;20.78;55.91
10476;BME280;26166;48.264;11.436;2022-10-31T12:25:04;96409.47;;;20.72;56.16
10476;BME280;26166;48.264;11.436;2022-10-31T12:34:34;96381.84;;;20.66;55.90
10476;BME280;26166;48.264;11.436;2022-10-31T12:41:09;96366.75;;;20.60;55.66
10476;BME280;26166;48.264;11.436;2022-10-31T12:44:23;96367.22;;;20.57;55.96
10476;BME280;26166;48.264;11.436;2022-10-31T12:47:36;96357.56;;;20.56;55.90
10476;BME280;26166;48.264;11.436;2022-10-31T12:57:12;96349.22;;;20.52;56.66
10476;BME280;26166;48.264;11.436;2022-10-31T13:00:15;96345.16;;;20.50;56.96
10476;BME280;26166;48.264;11.436;2022-10-31T13:06:50;96346.63;;;20.46;57.12
10476;BME280;26166;48.264;11.436;2022-10-31T13:12:53;96333.13;;;20.40;57.10
10476;BME280;26166;48.264;11.436;2022-10-31T13:16:02;96328.81;;;20.39;57.14
10476;BME280;26166;48.264;11.436;2022-10-31T13:19:25;96325.59;;;20.37;57.16
10476;BME280;26166;48.264;11.436;2022-10-31T13:22:29;96322.91;;;20.37;57.27
10476;BME280;26166;48.264;11.436;2022-10-31T13:25:33;96325.59;;;20.37;57.12
10476;BME280;26166;48.264;11.436;2022-10-31T13:31:41;96315.38;;;20.34;57.32
10476;BME280;26166;48.264;11.436;2022-10-31T13:34:42;96316.41;;;20.33;57.08
10476;BME280;26166;48.264;11.436;2022-10-31T13:37:49;96326.03;;;20.34;57.07
10476;BME280;26166;48.264;11.436;2022-10-31T13:40:58;96317.47;;;20.32;57.18
10476;BME280;26166;48.264;11.436;2022-10-31T13:44:14;96316.63;;;20.32;57.24
10476;BME280;26166;48.264;11.436;2022-10-31T13:50:26;96304.31;;;20.31;57.11
10476;BME280;26166;48.264;11.436;2022-10-31T13:56:39;96307.22;;;20.29;57.33
10476;BME280;26166;48.264;11.436;2022-10-31T13:59:45;96308.28;;;20.28;57.31
10476;BME280;26166;48.264;11.436;2022-10-31T14:02:56;96306.63;;;20.27;57.30
10476;BME280;26166;48.264;11.436;2022-10-31T14:05:57;96294.94;;;20.28;57.32
10476;BME280;26166;48.264;11.436;2022-10-31T14:08:57;96301.28;;;20.27;57.47
10476;BME280;26166;48.264;11.436;2022-10-31T14:11:58;96287.97;;;20.27;57.46
10476;BME280;26166;48.264;11.436;2022-10-31T14:15:02;96282.63;;;20.27;57.53
10476;BME280;26166;48.264;11.436;2022-10-31T14:18:04;96281.59;;;20.28;57.55
10476;BME280;26166;48.264;11.436;2022-10-31T14:21:13;96273.59;;;20.28;57.42
10476;BME280;26166;48.264;11.436;2022-10-31T14:27:42;96271.75;;;20.29;57.49
10476;BME280;26166;48.264;11.436;2022-10-31T14:30:35;96272.78;;;20.28;57.66
10476;BME280;26166;48.264;11.436;2022-10-31T14:33:36;96279.75;;;20.29;57.40
10476;BME280;26166;48.264;11.436;2022-10-31T14:36:45;96274.41;;;20.29;57.63
10476;BME280;26166;48.264;11.436;2022-10-31T14:39:57;96263.94;;;20.27;57.57
10476;BME280;26166;48.264;11.436;2022-10-31T14:46:50;96272.78;;;20.28;57.62
10476;BME280;26166;48.264;11.436;2022-10-31T14:49:48;96260.25;;;20.28;57.61
10476;BME280;26166;48.264;11.436;2022-10-31T14:52:52;96255.38;;;20.25;57.54
10476;BME280;26166;48.264;11.436;2022-10-31T14:55:54;96265.00;;;20.26;57.51
10476;BME280;26166;48.264;11.436;2022-10-31T14:58:55;96255.38;;;20.25;57.62
10476;BME280;26166;48.264;11.436;2022-10-31T15:01:58;96259.66;;;20.26;57.58
10476;BME280;26166;48.264;11.436;2022-10-31T15:04:59;96247.38;;;20.25;57.69
10476;BME280;26166;48.264;11.436;2022-10-31T15:08:01;96243.66;;;20.26;57.54
10476;BME280;26166;48.264;11.436;2022-10-31T15:11:14;96244.47;;;20.27;57.64
10476;BME280;26166;48.264;11.436;2022-10-31T15:14:22;96241.00;;;20.26;57.77
10476;BME280;26166;48.264;11.436;2022-10-31T15:17:23;96233.81;;;20.27;57.71
10476;BME280;26166;48.264;11.436;2022-10-31T15:20:25;96243.47;;;20.28;57.66
10476;BME280;26166;48.264;11.436;2022-10-31T15:23:27;96239.94;;;20.27;57.62
10476;BME280;26166;48.264;11.436;2022-10-31T15:26:32;96229.28;;;20.27;57.79
10476;BME280;26166;48.264;11.436;2022-10-31T15:29:35;96233.59;;;20.28;57.70
10476;BME280;26166;48.264;11.436;2022-10-31T15:32:35;96230.94;;;20.28;57.79
10476;BME280;26166;48.264;11.436;2022-10-31T15:35:35;96227.22;;;20.29;57.65
10476;BME280;26166;48.264;11.436;2022-10-31T15:38:35;96231.72;;;20.29;57.78
10476;BME280;26166;48.264;11.436;2022-10-31T15:41:55;96226.41;;;20.29;57.71
10476;BME280;26166;48.264;11.436;2022-10-31T15:48:18;96233.13;;;20.31;57.59
10476;BME280;26166;48.264;11.436;2022-10-31T15:51:25;96220.03;;;20.30;57.56
10476;BME280;26166;48.264;11.436;2022-10-31T15:54:25;96224.53;;;20.29;57.55
10476;BME280;26166;48.264;11.436;2022-10-31T15:57:26;96228.03;;;20.30;57.72
10476;BME280;26166;48.264;11.436;2022-10-31T16:00:34;96226.16;;;20.30;57.77
10476;BME280;26166;48.264;11.436;2022-10-31T16:03:34;96223.50;;;20.30;57.61
10476;BME280;26166;48.264;11.436;2022-10-31T16:06:34;96226.16;;;20.30;57.76
10476;BME280;26166;48.264;11.436;2022-10-31T16:09:35;96223.50;;;20.30;57.65
10476;BME280;26166;48.264;11.436;2022-10-31T16:12:36;96227.78;;;20.31;57.61
10476;BME280;26166;48.264;11.436;2022-10-31T16:15:36;96224.31;;;20.31;57.84
10476;BME280;26166;48.264;11.436;2022-10-31T16:18:37;96218.16;;;20.30;57.66
10476;BME280;26166;48.264;11.436;2022-10-31T16:21:38;96228.84;;;20.30;57.83
10476;BME280;26166;48.264;11.436;2022-10-31T16:24:46;96228.84;;;20.30;57.88
10476;BME280;26166;48.264;11.436;2022-10-31T16:27:49;96225.13;;;20.31;57.69
10476;BME280;26166;48.264;11.436;2022-10-31T16:30:51;96226.97;;;20.31;57.77
10476;BME280;26166;48.264;11.436;2022-10-31T16:34:01;96226.16;;;20.30;57.62
10476;BME280;26166;48.264;11.436;2022-10-31T16:37:01;96234.16;;;20.30;57.56
10476;BME280;26166;48.264;11.436;2022-10-31T16:40:02;96228.84;;;20.30;57.71
10476;BME280;26166;48.264;11.436;2022-10-31T16:43:02;96233.34;;;20.30;57.71
10476;BME280;26166;48.264;11.436;2022-10-31T16:46:02;96234.16;;;20.30;57.80
10476;BME280;26166;48.264;11.436;2022-10-31T16:49:03;96227.22;;;20.29;57.80
10476;BME280;26166;48.264;11.436;2022-10-31T16:52:03;96235.22;;;20.29;57.78
10476;BME280;26166;48.264;11.436;2022-10-31T16:55:04;96235.22;;;20.29;57.63
10476;BME280;26166;48.264;11.436;2022-10-31T16:58:04;96237.88;;;20.29;57.69
10476;BME280;26166;48.264;11.436;2022-10-31T17:01:09;96240.53;;;20.29;57.79
10476;BME280;26166;48.264;11.436;2022-10-31T17:04:12;96243.22;;;20.29;57.78
10476;BME280;26166;48.264;11.436;2022-10-31T17:07:13;96237.88;;;20.29;57.74
10476;BME280;26166;48.264;11.436;2022-10-31T17:10:14;96243.22;;;20.29;58.06
10476;BME280;26166;48.264;11.436;2022-10-31T17:13:21;96242.41;;;20.29;57.99
10476;BME280;26166;48.264;11.436;2022-10-31T17:16:22;96239.94;;;20.27;57.71
10476;BME280;26166;48.264;11.436;2022-10-31T17:19:23;96250.63;;;20.27;57.83
10476;BME280;26166;48.264;11.436;2022-10-31T17:22:23;96245.28;;;20.27;57.81
10476;BME280;26166;48.264;11.436;2022-10-31T17:25:27;96240.78;;;20.28;57.93
10476;BME280;26166;48.264;11.436;2022-10-31T17:28:28;96239.94;;;20.27;57.84
10476;BME280;26166;48.264;11.436;2022-10-31T17:31:29;96241.59;;;20.28;58.03
10476;BME280;26166;48.264;11.436;2022-10-31T17:34:29;96241.59;;;20.28;58.04
10476;BME280;26166;48.264;11.436;2022-10-31T17:37:30;96239.94;;;20.27;57.86
10476;BME280;26166;48.264;11.436;2022-10-31T17:40:30;96235.66;;;20.26;57.94
10476;BME280;26166;48.264;11.436;2022-10-31T17:43:30;96237.28;;;20.27;57.86
10476;BME280;26166;48.264;11.436;2022-10-31T17:46:30;96233.59;;;20.28;58.00
10476;BME280;26166;48.264;11.436;2022-10-31T17:49:30;96238.31;;;20.26;57.77
10476;BME280;26166;48.264;11.436;2022-10-31T17:52:31;96230.31;;;20.26;57.58
10476;BME280;26166;48.264;11.436;2022-10-31T17:55:31;96225.22;;;20.25;57.14
10476;BME280;26166;48.264;11.436;2022-10-31T17:58:31;96234.28;;;20.24;56.51
10476;BME280;26166;48.264;11.436;2022-10-31T18:01:33;96229.41;;;20.21;56.19
10476;BME280;26166;48.264;11.436;2022-10-31T18:04:33;96232.88;;;20.21;55.83
10476;BME280;26166;48.264;11.436;2022-10-31T18:07:33;96232.28;;;20.19;55.83
10476;BME280;26166;48.264;11.436;2022-10-31T18:10:34;96234.34;;;20.17;55.65
10476;BME280;26166;48.264;11.436;2022-10-31T18:13:34;96229.03;;;20.17;55.23
10476;BME280;26166;48.264;11.436;2022-10-31T18:16:35;96231.94;;;20.15;55.10
10476;BME280;26166;48.264;11.436;2022-10-31T18:19:35;96224.13;;;20.14;54.90
10476;BME280;26166;48.264;11.436;2022-10-31T18:22:35;96228.66;;;20.13;54.79
10476;BME280;26166;48.264;11.436;2022-10-31T18:25:35;96228.09;;;20.11;54.58
10476;BME280;26166;48.264;11.436;2022-10-31T18:28:37;96229.94;;;20.11;54.72
10476;BME280;26166;48.264;11.436;2022-10-31T18:31:38;96223.81;;;20.10;54.57
10476;BME280;26166;48.264;11.436;2022-10-31T18:34:38;96217.66;;;20.10;54.30
10476;BME280;26166;48.264;11.436;2022-10-31T18:37:38;96215.00;;;20.10;54.21
10476;BME280;26166;48.264;11.436;2022-10-31T18:40:39;96216.63;;;20.11;54.30